createdAt,value
2022-11-12T00:00:35.656Z,57.4
2022-11-12T00:04:46.242Z,62.9
2022-11-12T00:06:50.124Z,80
2022-11-12T00:08:53.925Z,61.1
2022-11-12T00:10:57.833Z,46.9
2022-11-12T00:13:01.720Z,53.5
2022-11-12T00:15:05.591Z,62.5
2022-11-12T00:17:12.203Z,56.3
2022-11-12T00:19:16.052Z,49.3
2022-11-12T00:21:19.833Z,45.9
2022-11-12T00:23:23.720Z,44.4
2022-11-12T00:25:27.595Z,44.7
2022-11-12T00:27:31.363Z,52
2022-11-12T00:29:35.252Z,62.2
2022-11-12T00:31:42.047Z,135.3
2022-11-12T00:35:49.800Z,57.3
2022-11-12T00:37:53.665Z,62.4
2022-11-12T00:39:57.518Z,56
2022-11-12T00:42:01.404Z,51
2022-11-12T00:50:19.831Z,45.5
2022-11-12T00:52:43.819Z,53
2022-11-12T00:54:47.741Z,39.4
2022-11-12T00:56:51.575Z,41.7
2022-11-12T00:58:58.355Z,45.6
2022-11-12T01:01:02.370Z,48
2022-11-12T01:03:06.119Z,53.9
2022-11-12T01:05:09.977Z,46.4
2022-11-12T01:11:21.608Z,38.1
2022-11-12T01:13:28.300Z,45.6
2022-11-12T01:15:32.173Z,36.1
2022-11-12T01:17:36.015Z,51.1
2022-11-12T01:19:39.915Z,43.7
2022-11-12T01:21:43.745Z,41.6
2022-11-12T01:23:47.629Z,34.8
2022-11-12T01:25:51.472Z,34.2
2022-11-12T01:30:02.145Z,40.9
2022-11-12T01:32:06.005Z,37.7
2022-11-12T01:34:09.840Z,37.9
2022-11-12T01:36:13.712Z,31.1
2022-11-12T01:40:21.438Z,28.4
2022-11-12T01:42:28.109Z,40.9
2022-11-12T01:44:31.960Z,40.4
2022-11-12T01:46:35.863Z,49.7
2022-11-12T01:47:39.142Z,43.6
2022-11-12T01:49:46.125Z,51.6
2022-11-12T01:51:46.890Z,33.4
2022-11-12T01:53:50.734Z,33.8
2022-11-12T01:55:57.459Z,50.8
2022-11-12T01:58:01.296Z,42.3
2022-11-12T02:02:09.067Z,37.6
2022-11-12T02:04:12.943Z,44.8
2022-11-12T02:06:16.803Z,44.2
2022-11-12T02:08:20.662Z,49.1
2022-11-12T02:12:31.304Z,35.7
2022-11-12T02:14:35.175Z,34.9
2022-11-12T02:16:39.080Z,35.6
2022-11-12T02:18:42.916Z,41.7
2022-11-12T02:20:46.800Z,39.5
2022-11-12T02:22:50.690Z,38.7
2022-11-12T02:24:58.970Z,41.5
2022-11-12T02:27:02.772Z,36.6
2022-11-12T02:29:06.545Z,39.3
2022-11-12T02:31:10.416Z,53.1
2022-11-12T02:37:22.029Z,40.6
2022-11-12T02:39:28.785Z,41.5
2022-11-12T02:41:32.691Z,39.7
2022-11-12T02:44:39.978Z,36.3
2022-11-12T02:46:43.828Z,46.9
2022-11-12T02:48:47.670Z,43
2022-11-12T02:50:51.536Z,44
2022-11-12T02:55:02.208Z,41.6
2022-11-12T02:57:06.074Z,44.1
2022-11-12T02:59:09.928Z,34.5
2022-11-12T03:01:13.850Z,38.7
2022-11-12T03:03:17.633Z,31.7
2022-11-12T03:07:28.305Z,62.5
2022-11-12T03:24:01.952Z,31.2
2022-11-12T03:26:05.938Z,37.9
2022-11-12T03:28:09.660Z,36.3
2022-11-12T03:30:13.503Z,43.2
2022-11-12T03:32:17.344Z,45.7
2022-11-12T03:34:21.219Z,33.9
2022-11-12T03:36:27.973Z,39.5
2022-11-12T03:38:31.816Z,44.5
2022-11-12T03:41:39.047Z,39.7
2022-11-12T03:43:42.887Z,33.2
2022-11-12T03:45:46.736Z,32.3
2022-11-12T03:47:50.594Z,51.5
2022-11-12T03:49:57.371Z,29
2022-11-12T03:52:01.206Z,41.2
2022-11-12T03:54:05.031Z,35.2
2022-11-12T03:56:08.758Z,42.2
2022-11-12T03:58:12.505Z,30.7
2022-11-12T04:00:16.346Z,30.5
2022-11-12T04:02:20.169Z,33.3
2022-11-12T04:04:26.941Z,35.7
2022-11-12T04:06:30.790Z,35.8
2022-11-12T04:08:34.629Z,39.9
2022-11-12T04:10:38.471Z,40.5
2022-11-12T04:14:46.136Z,30.4
2022-11-12T04:16:49.952Z,46.6
2022-11-12T04:18:56.714Z,39
2022-11-12T04:21:00.440Z,37.8
2022-11-12T04:23:04.172Z,28
2022-11-12T04:25:07.931Z,34.7
2022-11-12T04:29:15.579Z,26.3
2022-11-12T04:33:26.058Z,36.8
2022-11-12T04:35:29.793Z,35.1
2022-11-12T04:37:33.631Z,35.9
2022-11-12T04:40:03.463Z,38.4
2022-11-12T04:42:07.268Z,47
2022-11-12T04:44:11.089Z,42.9
2022-11-12T04:46:17.747Z,43
2022-11-12T04:48:21.597Z,42
2022-11-12T04:50:25.323Z,34.5
2022-11-12T04:52:29.158Z,36.5
2022-11-12T04:54:32.978Z,30.2
2022-11-12T04:56:36.804Z,38.4
2022-11-12T04:58:40.676Z,44.6
2022-11-12T05:04:54.994Z,47.1
2022-11-12T05:06:58.956Z,40.2
2022-11-12T05:09:02.682Z,39.7
2022-11-12T05:11:11.543Z,39.9
2022-11-12T05:13:10.339Z,33.6
2022-11-12T05:15:16.979Z,44.3
2022-11-12T05:17:20.825Z,41.4
2022-11-12T05:19:24.669Z,31.5
2022-11-12T05:21:28.496Z,40.2
2022-11-12T05:23:32.309Z,38.8
2022-11-12T05:25:36.214Z,55.8
2022-11-12T05:27:39.899Z,39.8
2022-11-12T05:29:46.617Z,41.4
2022-11-12T05:34:57.547Z,35.8
2022-11-12T05:37:01.390Z,42.2
2022-11-12T05:39:05.214Z,37.1
2022-11-12T05:41:09.027Z,38.9
2022-11-12T05:43:15.691Z,41
2022-11-12T05:45:19.443Z,48.5
2022-11-12T05:47:23.251Z,40.7
2022-11-12T05:49:27.098Z,42.8
2022-11-12T05:51:30.919Z,40.4
2022-11-12T05:53:34.730Z,38.2
2022-11-12T05:55:38.592Z,33.8
2022-11-12T05:57:45.207Z,33.2
2022-11-12T05:59:49.066Z,31.3
2022-11-12T06:01:52.897Z,38.1
2022-11-12T06:03:56.738Z,27.9
2022-11-12T06:06:00.546Z,29.7
2022-11-12T06:08:04.296Z,46.7
2022-11-12T06:10:08.132Z,29.8
2022-11-12T06:12:14.895Z,35.2
2022-11-12T06:14:18.723Z,27.3
2022-11-12T06:18:26.643Z,42.8
2022-11-12T06:22:33.994Z,32.2
2022-11-12T06:24:37.828Z,41.7
2022-11-12T06:26:44.589Z,45.3
2022-11-12T06:28:48.452Z,51.4
2022-11-12T06:30:52.269Z,48.2
2022-11-12T06:33:59.485Z,34.8
2022-11-12T06:36:03.445Z,33.6
2022-11-12T06:38:07.144Z,32.5
2022-11-12T06:40:13.932Z,44.5
2022-11-12T06:42:17.760Z,29.8
2022-11-12T06:44:22.447Z,36.6
2022-11-12T06:46:25.449Z,33.8
2022-11-12T06:48:29.309Z,28.8
2022-11-12T06:50:33.150Z,30.8
2022-11-12T06:52:36.966Z,41.5
2022-11-12T06:54:43.731Z,33.4
2022-11-12T06:56:47.461Z,34.7
2022-11-12T06:58:51.289Z,32
2022-11-12T07:00:55.118Z,40.6
2022-11-12T07:07:10.366Z,41.6
2022-11-12T07:09:13.374Z,53.7
2022-11-12T07:15:24.823Z,31.9
2022-11-12T07:17:28.650Z,36.8
2022-11-12T07:21:36.185Z,41.8
2022-11-12T07:23:42.907Z,43.6
2022-11-12T07:25:46.748Z,56.5
2022-11-12T07:28:53.927Z,51.4
2022-11-12T07:30:57.762Z,36.1
2022-11-12T07:35:05.400Z,52.8
2022-11-12T07:37:12.126Z,48.7
2022-11-12T07:39:15.978Z,40.9
2022-11-12T07:41:19.794Z,41.1
2022-11-12T07:43:23.617Z,41.6
2022-11-12T07:45:27.452Z,53
2022-11-12T07:47:31.238Z,54
2022-11-12T07:49:34.964Z,62.2
2022-11-12T07:51:41.603Z,52.3
2022-11-12T07:53:45.422Z,45.9
2022-11-12T07:55:49.276Z,45.4
2022-11-12T07:57:52.981Z,49.8
2022-11-12T07:59:56.826Z,41
2022-11-12T08:02:00.666Z,54
2022-11-12T08:04:04.363Z,46
2022-11-12T08:06:10.908Z,62.2
2022-11-12T08:08:14.768Z,62.3
2022-11-12T08:10:18.626Z,61
2022-11-12T08:12:22.453Z,43.4
2022-11-12T08:14:26.329Z,50.5
2022-11-12T08:16:30.110Z,39.9
2022-11-12T08:18:33.937Z,38.8
2022-11-12T08:20:40.686Z,71
2022-11-12T08:22:49.175Z,57.3
2022-11-12T08:24:49.680Z,46.1
2022-11-12T08:27:19.510Z,70.4
2022-11-12T08:29:23.387Z,76
2022-11-12T08:31:27.173Z,60.1
2022-11-12T08:33:33.902Z,77
2022-11-12T08:37:41.714Z,60.3
2022-11-12T08:39:45.543Z,60.1
2022-11-12T08:41:49.353Z,68.4
2022-11-12T08:43:53.184Z,60.8
2022-11-12T08:48:03.755Z,74.4
2022-11-12T08:50:07.616Z,59.7
2022-11-12T08:54:15.401Z,57.7
2022-11-12T08:56:19.247Z,40.1
2022-11-12T08:58:23.246Z,52.2
2022-11-12T09:00:27.012Z,32.2
2022-11-12T09:02:33.688Z,55.9
2022-11-12T09:04:37.566Z,46.3
2022-11-12T09:06:41.499Z,40.8
2022-11-12T09:08:45.322Z,55.7
2022-11-12T09:12:53.108Z,38.7
2022-11-12T09:15:09.671Z,45.3
2022-11-12T09:17:03.703Z,42.3
2022-11-12T09:19:07.591Z,39.1
2022-11-12T09:21:05.381Z,34.8
2022-11-12T09:26:16.439Z,33.4
2022-11-12T09:28:20.338Z,42.3
2022-11-12T09:30:27.069Z,40.9
2022-11-12T09:32:30.940Z,29.5
2022-11-12T09:34:34.861Z,29.6
2022-11-12T09:36:39.946Z,25.1
2022-11-12T09:38:42.666Z,26.2
2022-11-12T09:40:46.573Z,27.5
2022-11-12T09:44:57.183Z,21.7
2022-11-12T09:47:01.101Z,17
2022-11-12T09:49:05.028Z,23.1
2022-11-12T09:51:08.930Z,20.7
2022-11-12T09:53:12.851Z,16.1
2022-11-12T09:55:16.748Z,17.5
2022-11-12T09:57:20.643Z,25.9
2022-11-12T09:59:27.377Z,21.7
2022-11-12T10:01:31.331Z,21.7
2022-11-12T10:05:39.149Z,22.3
2022-11-12T10:07:43.048Z,20.2
2022-11-12T10:09:46.972Z,13.4
2022-11-12T10:11:50.889Z,12.9
2022-11-12T10:13:57.640Z,12.9
2022-11-12T10:16:01.552Z,17.1
2022-11-12T10:18:05.479Z,15.3
2022-11-12T10:19:08.840Z,15.1
2022-11-12T10:23:16.662Z,14.7
2022-11-12T10:27:27.325Z,9.5
2022-11-12T10:29:31.250Z,20.7
2022-11-12T10:33:39.085Z,11.9
2022-11-12T10:35:43.018Z,12
2022-11-12T10:37:46.928Z,13.1
2022-11-12T10:39:50.877Z,11.9
2022-11-12T10:41:57.611Z,13.4
2022-11-12T10:44:01.556Z,9.9
2022-11-12T10:50:13.330Z,14.7
2022-11-12T10:52:17.268Z,12.8
2022-11-12T10:54:21.193Z,10.2
2022-11-12T10:56:27.947Z,10.1
2022-11-12T10:58:31.878Z,9.8
2022-11-12T11:00:35.803Z,12.3
2022-11-12T11:02:39.747Z,9.2
2022-11-12T11:04:43.662Z,7.3
2022-11-12T11:06:47.669Z,13.4
2022-11-12T11:08:51.524Z,13.9
2022-11-12T11:10:58.276Z,9.4
2022-11-12T11:13:02.214Z,11.5
2022-11-12T11:15:06.140Z,14.1
2022-11-12T11:20:17.371Z,14.1
2022-11-12T11:24:28.046Z,16.3
2022-11-12T11:26:31.974Z,8
2022-11-12T11:28:35.909Z,16.3
2022-11-12T11:30:39.825Z,9.6
2022-11-12T11:32:43.750Z,11.2
2022-11-12T11:34:47.677Z,14.6
2022-11-12T11:36:51.609Z,12.3
2022-11-12T11:38:58.323Z,18.1
2022-11-12T11:41:02.252Z,8.7
2022-11-12T11:43:06.172Z,10.2
2022-11-12T11:45:10.103Z,10.4
2022-11-12T11:47:14.021Z,9.7
2022-11-12T11:49:17.958Z,7.4
2022-11-12T11:51:25.920Z,15.6
2022-11-12T11:53:28.602Z,12.7
2022-11-12T11:55:32.525Z,11.8
2022-11-12T11:57:36.456Z,15.5
2022-11-12T11:59:40.390Z,11.6
2022-11-12T12:01:44.313Z,11.5
2022-11-12T12:03:48.325Z,9.4
2022-11-12T12:05:52.350Z,13
2022-11-12T12:07:58.885Z,13.1
2022-11-12T12:10:08.889Z,10.7
2022-11-12T12:12:06.764Z,15.9
2022-11-12T12:14:36.415Z,20.9
2022-11-12T12:20:51.027Z,30
2022-11-12T12:24:58.869Z,13.7
2022-11-12T12:27:02.813Z,15.1
2022-11-12T12:29:06.734Z,9.1
2022-11-12T12:31:10.669Z,12.7
2022-11-12T12:33:14.626Z,11.4
2022-11-12T12:35:21.368Z,11.8
2022-11-12T12:37:25.289Z,8.8
2022-11-12T12:39:29.221Z,12.3
2022-11-12T12:41:33.151Z,11.2
2022-11-12T12:43:37.110Z,9.7
2022-11-12T12:45:41.208Z,15.3
2022-11-12T12:47:45.008Z,9.8
2022-11-12T12:49:51.769Z,9.1
2022-11-12T12:51:56.025Z,11.8
2022-11-12T12:53:59.637Z,11.7
2022-11-12T12:56:03.569Z,10.2
2022-11-12T12:58:07.512Z,12.1
2022-11-12T13:00:15.316Z,10.3
2022-11-12T13:04:22.112Z,12.2
2022-11-12T13:08:30.252Z,9.5
2022-11-12T13:09:33.388Z,12
2022-11-12T13:11:37.312Z,10.8
2022-11-12T13:13:41.239Z,13.5
2022-11-12T13:15:45.372Z,15.5
2022-11-12T13:19:55.872Z,13.4
2022-11-12T13:21:59.805Z,16.6
2022-11-12T13:24:03.760Z,9.6
2022-11-12T13:26:07.665Z,7.7
2022-11-12T13:28:11.606Z,13.7
2022-11-12T13:30:15.551Z,12
2022-11-12T13:32:22.280Z,10.5
2022-11-12T13:36:30.160Z,14
2022-11-12T13:42:41.938Z,14.7
2022-11-12T13:48:56.540Z,16.5
2022-11-12T13:51:00.461Z,15.5
2022-11-12T13:55:08.338Z,10
2022-11-12T13:57:14.414Z,16.2
2022-11-12T13:59:16.198Z,11
2022-11-12T14:01:23.043Z,11.9
2022-11-12T14:03:26.886Z,17.9
2022-11-12T14:05:30.805Z,13.8
2022-11-12T14:08:38.099Z,18.7
2022-11-12T14:12:46.241Z,12.5
2022-11-12T14:14:52.981Z,16.6
2022-11-12T14:16:56.905Z,14.1
2022-11-12T14:19:02.368Z,15.3
2022-11-12T14:27:18.031Z,12.3
2022-11-12T14:31:28.698Z,17.7
2022-11-12T14:35:36.561Z,20.1
2022-11-12T14:37:43.775Z,17.3
2022-11-12T14:39:44.408Z,19.2
2022-11-12T14:41:48.336Z,17
2022-11-12T14:45:59.007Z,25.9
2022-11-12T14:50:06.857Z,13
2022-11-12T14:52:10.810Z,11.9
2022-11-12T14:54:14.718Z,12
2022-11-12T14:56:18.647Z,11.8
2022-11-12T14:58:25.412Z,15
2022-11-12T15:00:29.364Z,12.7
2022-11-12T15:02:48.927Z,17.9
2022-11-12T15:03:36.620Z,16.6
2022-11-12T15:05:40.670Z,11.6
2022-11-12T15:07:44.458Z,15
2022-11-12T15:09:48.382Z,14.4
2022-11-12T15:11:55.110Z,20.7
2022-11-12T15:13:59.032Z,10.4
2022-11-12T15:16:02.983Z,14.9
2022-11-12T15:18:06.893Z,18.8
2022-11-12T15:20:10.825Z,18.6
2022-11-12T15:22:14.743Z,21.6
2022-11-12T15:24:18.649Z,25.3
2022-11-12T15:26:25.394Z,18.8
2022-11-12T15:28:29.330Z,17.1
2022-11-12T15:32:37.166Z,17.5
2022-11-12T15:38:48.906Z,23.4
2022-11-12T15:40:57.545Z,17.1
2022-11-12T15:42:59.542Z,20.7
2022-11-12T15:45:03.469Z,23.2
2022-11-12T15:47:07.376Z,18.6
2022-11-12T15:49:11.296Z,28.7
2022-11-12T15:51:15.232Z,21.2
2022-11-12T15:53:19.132Z,20.1
2022-11-12T15:55:25.859Z,24.9
2022-11-12T15:57:29.773Z,26
2022-11-12T15:59:33.690Z,18.1
2022-11-12T16:04:07.252Z,17.2
2022-11-12T16:06:11.184Z,18.2
2022-11-12T16:10:21.818Z,24.3
2022-11-12T16:12:25.728Z,16.2
2022-11-12T16:16:33.546Z,21.6
2022-11-12T16:24:51.996Z,14.6
2022-11-12T16:26:55.925Z,14.9
2022-11-12T16:28:59.841Z,11.1
2022-11-12T16:31:03.743Z,28.7
2022-11-12T16:33:07.647Z,25.8
2022-11-12T16:37:18.290Z,18.7
2022-11-12T16:39:22.204Z,20.8
2022-11-12T16:41:26.115Z,21
2022-11-12T16:43:30.369Z,17
2022-11-12T16:45:33.933Z,23.5
2022-11-12T16:47:37.852Z,21.9
2022-11-12T16:49:41.756Z,16.6
2022-11-12T16:51:48.464Z,19.8
2022-11-12T16:53:52.356Z,59.6
2022-11-12T16:55:56.266Z,25.6
2022-11-12T16:56:59.638Z,21.3
2022-11-12T16:59:03.524Z,20.9
2022-11-12T17:01:07.513Z,24
2022-11-12T17:03:11.334Z,19.9
2022-11-12T17:05:18.089Z,22.4
2022-11-12T17:07:22.011Z,25.9
2022-11-12T17:09:25.855Z,26.6
2022-11-12T17:11:29.752Z,23.5
2022-11-12T17:13:33.648Z,27.5
2022-11-12T17:15:37.541Z,29.2
2022-11-12T17:17:41.436Z,28.5
2022-11-12T17:19:48.123Z,25.6
2022-11-12T17:21:52.061Z,25.9
2022-11-12T17:23:55.919Z,27.6
2022-11-12T17:25:59.806Z,32.1
2022-11-12T17:30:07.583Z,30.1
2022-11-12T17:34:18.164Z,24.3
2022-11-12T17:36:22.057Z,29.4
2022-11-12T17:38:25.954Z,31.5
2022-11-12T17:42:33.731Z,28.2
2022-11-12T17:44:37.632Z,38.1
2022-11-12T17:46:41.621Z,33.8
2022-11-12T17:48:48.310Z,33.9
2022-11-12T17:50:52.164Z,42.6
2022-11-12T17:52:56.043Z,42.8
2022-11-12T17:53:59.380Z,54
2022-11-12T17:56:03.254Z,45.6
2022-11-12T17:58:07.135Z,43.8
2022-11-12T18:00:11.008Z,35.9
2022-11-12T18:02:17.684Z,49.6
2022-11-12T18:04:23.864Z,31.1
2022-11-12T18:06:25.449Z,45.3
2022-11-12T18:08:29.288Z,58.5
2022-11-12T18:10:33.148Z,40.4
2022-11-12T18:12:36.995Z,41.7
2022-11-12T18:14:40.845Z,48.2
2022-11-12T18:16:47.551Z,56.8
2022-11-12T18:18:51.499Z,63.3
2022-11-12T18:20:55.458Z,61.2
2022-11-12T18:22:59.299Z,56.8
2022-11-12T18:25:03.184Z,57.6
2022-11-12T18:27:07.046Z,65.6
2022-11-12T18:29:10.890Z,75.3
2022-11-12T18:31:17.768Z,73.3
2022-11-12T18:33:21.622Z,66.3
2022-11-12T18:35:29.587Z,73.7
2022-11-12T18:37:29.356Z,72.9
2022-11-12T18:39:33.297Z,73
2022-11-12T18:41:37.239Z,85.8
2022-11-12T18:43:41.101Z,97.3
2022-11-12T18:45:47.744Z,80.8
2022-11-12T18:47:51.610Z,81.7
2022-11-12T18:49:55.563Z,82
2022-11-12T18:55:06.576Z,81
2022-11-12T18:57:10.543Z,94.7
2022-11-12T19:03:25.390Z,78.6
2022-11-12T19:09:36.641Z,83.4
2022-11-12T19:11:40.603Z,99.9
2022-11-12T19:13:47.239Z,89
2022-11-12T19:15:51.077Z,86.4
2022-11-12T19:17:55.010Z,78.3
2022-11-12T19:19:58.817Z,79.6
2022-11-12T19:22:02.696Z,77.8
2022-11-12T19:24:06.469Z,74.6
2022-11-12T19:26:10.412Z,68.6
2022-11-12T19:28:17.264Z,87.6
2022-11-12T19:30:21.102Z,107.3
2022-11-12T19:32:25.026Z,113.5
2022-11-12T19:34:28.897Z,107.8
2022-11-12T19:36:32.821Z,120.4
2022-11-12T19:38:36.749Z,140
2022-11-12T19:40:40.595Z,121.8
2022-11-12T19:42:47.316Z,107.3
2022-11-12T19:46:55.092Z,113.3
2022-11-12T19:51:28.652Z,107.7
2022-11-12T19:55:40.059Z,100.7
2022-11-12T19:57:43.076Z,106.2
2022-11-12T19:59:47.004Z,126
2022-11-12T20:01:50.941Z,118.9
2022-11-12T20:03:54.804Z,100.3
2022-11-12T20:05:58.706Z,92.2
2022-11-12T20:08:02.660Z,93
2022-11-12T20:10:09.485Z,108.3
2022-11-12T20:12:13.289Z,98.3
2022-11-12T20:14:17.132Z,89.6
2022-11-12T20:16:25.212Z,95
2022-11-12T20:18:26.666Z,84.6
2022-11-12T20:26:44.778Z,83.3
2022-11-12T20:28:48.716Z,95.5
2022-11-12T20:35:00.455Z,104.2
2022-11-12T20:37:04.283Z,104.7
2022-11-12T20:39:10.896Z,126.1
2022-11-12T20:41:14.723Z,105.4
2022-11-12T20:43:18.657Z,103.3
2022-11-12T20:44:21.961Z,111.2
2022-11-12T20:50:33.615Z,101.1
2022-11-12T20:52:40.478Z,109.1
2022-11-12T20:54:44.309Z,103.1
2022-11-12T20:56:48.227Z,104.8
2022-11-12T20:58:52.093Z,87.5
2022-11-12T21:00:55.924Z,119.2
2022-11-12T21:05:03.565Z,124.7
2022-11-12T21:07:10.291Z,103.7
2022-11-12T21:09:14.064Z,121.3
2022-11-12T21:11:17.873Z,131.4
2022-11-12T21:15:25.479Z,131.1
2022-11-12T21:17:29.292Z,126
2022-11-12T21:19:33.087Z,104.6
2022-11-12T21:21:39.722Z,113.2
2022-11-12T21:23:43.561Z,114.7
2022-11-12T21:29:54.931Z,104.9
2022-11-12T21:31:58.753Z,84
2022-11-12T21:40:16.789Z,80.9
2022-11-12T21:41:20.086Z,95.8
2022-11-12T21:43:23.880Z,99.9
2022-11-12T21:45:27.673Z,101.8
2022-11-12T21:47:31.486Z,100.2
2022-11-12T21:49:38.130Z,142.7
2022-11-12T21:51:42.024Z,99.1
2022-11-12T21:53:45.928Z,76.8
2022-11-12T21:55:49.725Z,90.2
2022-11-12T21:57:53.521Z,88.8
2022-11-12T22:00:08.184Z,84.4
2022-11-12T22:02:01.215Z,96.1
2022-11-12T22:04:07.759Z,102
2022-11-12T22:06:11.544Z,94.2
2022-11-12T22:08:15.368Z,99.1
2022-11-12T22:10:19.162Z,85.1
2022-11-12T22:12:22.953Z,85.2
2022-11-12T22:14:26.751Z,78.8
2022-11-12T22:16:30.546Z,86.2
2022-11-12T22:18:37.154Z,91.1
2022-11-12T22:20:40.945Z,69.4
2022-11-12T22:22:44.755Z,102.4
2022-11-12T22:24:48.557Z,78.4
2022-11-12T22:26:52.351Z,78.3
2022-11-12T22:28:56.158Z,105.3
2022-11-12T22:30:59.987Z,78.8
2022-11-12T22:33:06.597Z,94.2
2022-11-12T22:35:10.486Z,98.8
2022-11-12T22:37:14.276Z,91
2022-11-12T22:42:25.179Z,83
2022-11-12T22:46:35.603Z,88.6
2022-11-12T22:48:39.422Z,82.2
2022-11-12T22:54:50.915Z,90.6
2022-11-12T22:56:54.748Z,71.8
2022-11-12T23:03:08.942Z,77.6
2022-11-12T23:09:20.334Z,68.2
2022-11-12T23:11:24.131Z,80.7
2022-11-12T23:15:34.531Z,82.8
2022-11-12T23:17:38.330Z,74.5
2022-11-12T23:19:42.127Z,88
2022-11-12T23:21:45.916Z,88.6
2022-11-12T23:23:49.684Z,93.2
2022-11-12T23:25:53.499Z,88.6
2022-11-12T23:27:57.276Z,76.8
2022-11-12T23:30:04.027Z,75.7
2022-11-12T23:32:07.808Z,64.6
2022-11-12T23:34:11.604Z,57
2022-11-12T23:36:33.553Z,71.2
2022-11-12T23:38:37.363Z,59.1
2022-11-12T23:48:59.156Z,46.1
2022-11-12T23:55:10.582Z,56.8
2022-11-12T23:57:17.203Z,54.2
2022-11-12T23:59:21.101Z,38.6
